createdAt,value
2022-08-31T05:39:42.457Z,9.52
2022-08-31T05:42:17.006Z,9.55
2022-08-31T05:44:49.728Z,9.23
2022-08-31T05:47:22.579Z,8.98
2022-08-31T05:49:54.923Z,8.32
2022-08-31T05:52:28.440Z,8.38
2022-08-31T05:55:01.221Z,7.93
2022-08-31T05:57:34.341Z,7.75
2022-08-31T06:00:07.392Z,7.88
2022-08-31T06:02:44.584Z,8.05
2022-08-31T06:05:18.890Z,6.53
2022-08-31T06:07:53.362Z,7.40
2022-08-31T06:10:26.698Z,7.55
2022-08-31T06:12:58.907Z,8.40
2022-08-31T06:15:31.084Z,7.38
2022-08-31T06:18:06.204Z,7.60
2022-08-31T06:20:39.514Z,7.93
2022-08-31T06:23:11.852Z,7.50
2022-08-31T06:25:52.598Z,7.82
2022-08-31T06:28:24.736Z,7.03
2022-08-31T06:30:57.361Z,6.70
2022-08-31T06:33:30.811Z,7.28
2022-08-31T06:36:16.627Z,6.82
2022-08-31T06:39:06.476Z,7.47
2022-08-31T06:41:53.935Z,6.57
2022-08-31T06:44:44.267Z,6.82
2022-08-31T06:47:24.238Z,6.88
2022-08-31T06:49:58.696Z,6.60
2022-08-31T06:52:36.927Z,5.45
2022-08-31T06:55:26.858Z,6.15
2022-08-31T06:58:17.270Z,5.85
2022-08-31T07:01:35.962Z,6.20
2022-08-31T07:04:29.552Z,6.20
2022-08-31T07:07:01.754Z,5.65
2022-08-31T07:09:34.543Z,5.40
2022-08-31T07:12:07.503Z,5.07
2022-08-31T07:14:39.706Z,6.03
2022-08-31T07:17:12.431Z,5.10
2022-08-31T07:19:45.188Z,4.93
2022-08-31T07:22:18.333Z,5.60
2022-08-31T07:24:54.575Z,4.57
2022-08-31T07:27:27.382Z,4.85
2022-08-31T07:30:02.561Z,4.75
2022-08-31T07:32:39.797Z,4.63
2022-08-31T07:35:11.875Z,4.55
2022-08-31T07:38:02.878Z,5.88
2022-08-31T07:40:55.592Z,6.43
2022-08-31T07:43:28.134Z,6.20
2022-08-31T07:46:00.319Z,7.35
2022-08-31T07:48:34.510Z,8.20
2022-08-31T07:51:35.743Z,7.80
2022-08-31T07:54:29.534Z,8.43
2022-08-31T07:57:11.410Z,8.70
2022-08-31T07:59:44.122Z,8.05
2022-08-31T08:02:18.727Z,8.05
2022-08-31T08:04:52.410Z,8.55
2022-08-31T08:07:44.276Z,8.75
2022-08-31T08:10:58.845Z,8.73
2022-08-31T08:13:46.233Z,9.63
2022-08-31T08:16:44.158Z,13.57
2022-08-31T08:19:35.126Z,12.02
2022-08-31T08:22:07.991Z,10.98
2022-08-31T08:25:06.140Z,10.75
2022-08-31T08:27:49.071Z,10.13
2022-08-31T08:30:55.845Z,10.60
2022-08-31T08:33:33.456Z,9.82
2022-08-31T08:36:08.959Z,9.07
2022-08-31T08:38:47.783Z,10.02
2022-08-31T08:41:24.838Z,9.20
2022-08-31T08:44:02.186Z,9.30
2022-08-31T08:46:41.525Z,9.25
2022-08-31T08:49:20.968Z,9.63
2022-08-31T08:52:04.650Z,9.80
2022-08-31T08:57:37.370Z,9.63
2022-08-31T09:00:14.041Z,9.88
2022-08-31T09:02:59.759Z,9.43
2022-08-31T09:06:16.595Z,12.50
2022-08-31T09:08:57.025Z,11.38
2022-08-31T09:12:00.178Z,12.02
2022-08-31T09:15:08.640Z,12.32
2022-08-31T09:17:51.332Z,11.30
2022-08-31T09:20:25.505Z,10.97
2022-08-31T09:23:00.031Z,10.52
2022-08-31T09:25:37.382Z,10.15
2022-08-31T09:28:49.644Z,10.55
2022-08-31T09:31:47.865Z,10.48
2022-08-31T09:34:33.946Z,10.25
2022-08-31T09:37:26.433Z,9.90
2022-08-31T09:39:58.638Z,9.70
2022-08-31T09:42:33.693Z,9.40
2022-08-31T09:45:14.085Z,9.88
2022-08-31T09:47:53.642Z,9.52
2022-08-31T09:50:47.905Z,9.38
2022-08-31T09:53:45.454Z,8.85
2022-08-31T09:56:21.441Z,9.15
2022-08-31T09:59:02.936Z,8.77
2022-08-31T10:01:46.958Z,9.10
2022-08-31T10:04:31.493Z,9.55
2022-08-31T10:07:26.580Z,9.07
2022-08-31T10:10:27.991Z,8.82
2022-08-31T10:13:35.697Z,9.60
2022-08-31T10:16:38.069Z,9.35
2022-08-31T10:19:15.839Z,9.07
2022-08-31T10:22:04.886Z,9.20
2022-08-31T10:24:48.655Z,8.90
2022-08-31T10:27:30.692Z,10.00
2022-08-31T10:30:05.686Z,10.30
2022-08-31T10:33:01.667Z,10.23
2022-08-31T10:35:53.799Z,11.02
2022-08-31T10:38:42.503Z,11.27
2022-08-31T10:41:24.991Z,11.20
2022-08-31T10:44:28.206Z,11.93
2022-08-31T10:47:04.224Z,11.50
2022-08-31T10:49:36.876Z,11.75
2022-08-31T10:52:30.864Z,12.23
2022-08-31T10:55:47.645Z,12.23
2022-08-31T10:58:50.754Z,11.73
2022-08-31T11:01:44.922Z,12.38
2022-08-31T11:04:41.008Z,12.40
2022-08-31T11:07:16.103Z,12.52
2022-08-31T11:10:11.911Z,12.18
2022-08-31T11:12:50.877Z,13.25
2022-08-31T11:15:39.948Z,12.20
2022-08-31T11:18:45.467Z,12.38
2022-08-31T11:22:15.572Z,12.52
2022-08-31T11:25:04.757Z,12.95
2022-08-31T11:27:40.854Z,14.52
2022-08-31T11:30:28.465Z,15.30
2022-08-31T11:33:02.039Z,16.90
2022-08-31T11:36:10.515Z,17.25
2022-08-31T11:39:04.875Z,15.70
2022-08-31T11:41:49.389Z,16.85
2022-08-31T11:44:40.958Z,16.10
2022-08-31T11:47:17.755Z,15.53
2022-08-31T11:49:52.873Z,15.20
2022-08-31T11:52:30.678Z,15.30
2022-08-31T11:55:19.147Z,14.20
2022-08-31T11:58:08.955Z,14.85
2022-08-31T12:01:04.451Z,14.18
2022-08-31T12:03:47.672Z,13.38
2022-08-31T12:06:35.153Z,12.52
2022-08-31T12:09:42.205Z,12.43
2022-08-31T12:12:46.150Z,12.93
2022-08-31T12:15:30.354Z,12.15
2022-08-31T12:18:05.698Z,11.27
2022-08-31T12:21:14.034Z,11.20
2022-08-31T12:24:24.207Z,10.77
2022-08-31T12:27:21.119Z,10.15
2022-08-31T12:30:13.192Z,10.57
2022-08-31T12:32:48.194Z,10.02
2022-08-31T12:35:26.506Z,10.10
2022-08-31T12:38:08.640Z,9.95
2022-08-31T12:40:55.982Z,9.80
2022-08-31T12:43:51.708Z,9.30
2022-08-31T12:46:23.913Z,9.05
2022-08-31T12:49:17.714Z,9.25
2022-08-31T12:52:07.346Z,9.27
2022-08-31T12:55:09.227Z,8.85
2022-08-31T12:58:00.330Z,8.25
2022-08-31T13:00:40.730Z,8.80
2022-08-31T13:03:32.164Z,8.60
2022-08-31T13:06:10.710Z,8.10
2022-08-31T13:08:44.744Z,7.70
2022-08-31T13:11:41.057Z,7.88
2022-08-31T13:14:26.016Z,7.28
2022-08-31T13:17:07.123Z,7.70
2022-08-31T13:19:41.805Z,8.30
2022-08-31T13:22:18.358Z,7.82
2022-08-31T13:24:54.016Z,8.77
2022-08-31T13:27:29.670Z,7.95
2022-08-31T13:30:14.625Z,8.23
2022-08-31T13:32:51.661Z,7.57
2022-08-31T13:35:37.132Z,7.97
2022-08-31T13:38:10.489Z,7.32
2022-08-31T13:40:52.696Z,7.90
2022-08-31T13:43:28.176Z,7.15
2022-08-31T13:46:00.475Z,6.68
2022-08-31T13:48:41.930Z,6.38
2022-08-31T13:51:25.443Z,7.47
2022-08-31T13:53:57.543Z,6.38
2022-08-31T13:56:50.364Z,6.70
2022-08-31T13:59:25.494Z,5.93
2022-08-31T14:02:09.124Z,6.35
2022-08-31T14:04:52.755Z,6.85
2022-08-31T14:07:42.321Z,6.63
2022-08-31T14:10:28.115Z,6.72
2022-08-31T14:13:11.625Z,6.53
2022-08-31T14:15:56.377Z,6.47
2022-08-31T14:18:30.917Z,6.30
2022-08-31T14:21:24.491Z,5.72
2022-08-31T14:24:05.013Z,5.55
2022-08-31T14:26:42.844Z,5.68
2022-08-31T14:29:18.624Z,5.32
2022-08-31T14:31:56.477Z,5.28
2022-08-31T14:34:28.636Z,5.70
2022-08-31T14:37:21.133Z,5.72
2022-08-31T14:39:56.704Z,5.43
2022-08-31T14:42:37.781Z,5.38
2022-08-31T14:45:19.952Z,5.00
2022-08-31T14:47:53.727Z,5.03
2022-08-31T14:50:28.434Z,5.60
2022-08-31T14:53:00.999Z,5.38
2022-08-31T14:55:33.641Z,5.05
2022-08-31T14:58:10.067Z,4.90
2022-08-31T15:00:52.615Z,4.72
2022-08-31T15:03:26.188Z,4.78
2022-08-31T15:05:59.237Z,4.72
2022-08-31T15:08:38.709Z,4.65
2022-08-31T15:11:12.411Z,4.70
2022-08-31T15:13:44.537Z,4.40
2022-08-31T15:16:16.965Z,4.38
2022-08-31T15:18:49.145Z,4.78
2022-08-31T15:23:54.143Z,4.85
2022-08-31T15:26:26.337Z,4.43
2022-08-31T15:29:01.103Z,4.70
2022-08-31T15:31:34.154Z,4.93
2022-08-31T15:34:10.000Z,4.60
2022-08-31T15:36:42.374Z,4.88
2022-08-31T15:39:14.669Z,4.45
2022-08-31T15:41:46.867Z,4.40
2022-08-31T15:44:23.176Z,4.22
2022-08-31T15:47:13.253Z,4.65
2022-08-31T15:49:45.955Z,4.13
2022-08-31T15:52:18.093Z,4.03
2022-08-31T15:57:25.702Z,3.92
2022-08-31T15:59:58.194Z,4.18
2022-08-31T16:02:34.766Z,4.20
2022-08-31T16:05:08.062Z,4.35
2022-08-31T16:07:40.836Z,3.67
2022-08-31T16:10:19.887Z,3.95
2022-08-31T16:12:53.567Z,4.10
2022-08-31T16:15:26.767Z,3.67
2022-08-31T16:18:00.282Z,3.85
2022-08-31T16:23:04.494Z,4.20
2022-08-31T16:25:47.663Z,4.13
2022-08-31T16:28:22.278Z,3.88
2022-08-31T16:30:54.466Z,3.42
2022-08-31T16:33:26.781Z,3.80
2022-08-31T16:38:32.291Z,4.03
2022-08-31T16:41:06.123Z,3.30
2022-08-31T16:43:38.635Z,4.13
2022-08-31T16:46:37.273Z,4.35
2022-08-31T16:49:23.791Z,4.00
2022-08-31T16:51:56.963Z,3.85
2022-08-31T16:54:30.036Z,4.22
2022-08-31T16:57:02.682Z,4.53
2022-08-31T16:59:34.851Z,3.97
2022-08-31T17:04:52.028Z,4.27
2022-08-31T17:07:26.554Z,4.70
2022-08-31T17:10:03.284Z,4.35
2022-08-31T17:12:38.438Z,4.68
2022-08-31T17:15:13.559Z,4.60
2022-08-31T17:17:49.380Z,4.10
2022-08-31T17:20:21.511Z,4.38
2022-08-31T17:22:54.121Z,4.55
2022-08-31T17:25:26.682Z,4.28
2022-08-31T17:30:35.114Z,4.60
2022-08-31T17:33:07.473Z,4.13
2022-08-31T17:35:42.680Z,4.45
2022-08-31T17:38:15.025Z,4.18
2022-08-31T17:40:47.433Z,4.00
2022-08-31T17:43:21.469Z,4.10
2022-08-31T17:45:57.280Z,3.70
2022-08-31T17:51:02.508Z,4.68
2022-08-31T17:56:13.123Z,3.85
2022-08-31T17:58:45.334Z,4.20
2022-08-31T18:04:01.938Z,3.97
2022-08-31T18:06:34.042Z,3.80
2022-08-31T18:11:46.395Z,3.60
2022-08-31T18:14:21.557Z,3.92
2022-08-31T18:16:55.848Z,3.08
2022-08-31T18:19:29.170Z,4.03
2022-08-31T18:22:02.438Z,3.22
2022-08-31T18:24:37.368Z,3.30
2022-08-31T18:27:12.574Z,3.92
2022-08-31T18:29:45.639Z,3.13
2022-08-31T18:32:18.608Z,3.20
2022-08-31T18:34:55.290Z,3.45
2022-08-31T18:37:29.397Z,3.20
2022-08-31T18:40:27.806Z,2.75
2022-08-31T18:43:18.056Z,3.28
2022-08-31T18:45:51.858Z,3.55
2022-08-31T18:48:25.571Z,2.88
2022-08-31T18:51:00.270Z,3.38
2022-08-31T18:53:36.019Z,3.22
2022-08-31T18:56:10.955Z,3.47
2022-08-31T18:58:44.362Z,2.95
2022-08-31T19:01:18.747Z,3.22
2022-08-31T19:03:51.563Z,2.90
2022-08-31T19:06:26.893Z,3.25
2022-08-31T19:08:59.167Z,3.30
2022-08-31T19:11:31.392Z,2.80
2022-08-31T19:16:35.907Z,2.70
2022-08-31T19:19:08.081Z,3.17
2022-08-31T19:21:41.831Z,3.80
2022-08-31T19:24:17.242Z,2.85
2022-08-31T19:26:53.412Z,3.08
2022-08-31T19:29:29.329Z,2.55
2022-08-31T19:32:03.669Z,2.97
2022-08-31T19:34:39.983Z,2.97
2022-08-31T19:37:14.083Z,2.80
2022-08-31T19:39:46.296Z,2.67
2022-08-31T19:47:42.447Z,3.22
2022-08-31T19:50:16.822Z,2.80
2022-08-31T19:52:50.132Z,3.38
2022-08-31T19:55:22.217Z,2.72
2022-08-31T19:57:54.456Z,2.80
2022-08-31T20:00:26.634Z,3.00
2022-08-31T20:05:30.402Z,3.05
2022-08-31T20:08:03.154Z,3.17
2022-08-31T20:10:35.456Z,3.30
2022-08-31T20:13:07.576Z,3.60
2022-08-31T20:20:49.697Z,2.95
2022-08-31T20:23:22.473Z,3.30
2022-08-31T20:25:54.703Z,3.50
2022-08-31T20:28:28.235Z,3.15
2022-08-31T20:31:06.999Z,3.50
2022-08-31T20:33:40.256Z,3.45
2022-08-31T20:36:21.978Z,3.85
2022-08-31T20:38:58.473Z,2.95
2022-08-31T20:41:36.346Z,3.92
2022-08-31T20:44:18.619Z,3.65
2022-08-31T20:47:18.144Z,3.70
2022-08-31T20:49:59.078Z,3.70
2022-08-31T20:52:33.834Z,3.20
2022-08-31T20:55:08.371Z,3.47
2022-08-31T20:57:43.194Z,3.63
2022-08-31T21:00:16.106Z,3.42
2022-08-31T21:02:51.175Z,3.95
2022-08-31T21:05:41.075Z,3.38
2022-08-31T21:08:13.719Z,3.60
2022-08-31T21:10:46.754Z,3.97
2022-08-31T21:13:19.629Z,3.40
2022-08-31T21:15:52.233Z,3.30
2022-08-31T21:18:24.644Z,3.72
2022-08-31T21:21:01.073Z,3.50
2022-08-31T21:23:34.040Z,3.97
2022-08-31T21:26:09.979Z,3.60
2022-08-31T21:28:42.101Z,3.63
2022-08-31T21:31:27.587Z,3.53
2022-08-31T21:34:03.605Z,3.70
2022-08-31T21:36:37.147Z,4.00
2022-08-31T21:39:12.605Z,4.35
2022-08-31T21:41:47.308Z,3.95
2022-08-31T21:44:22.375Z,4.05
2022-08-31T21:46:54.766Z,4.38
2022-08-31T21:49:27.078Z,4.00
2022-08-31T21:52:01.143Z,4.35
2022-08-31T21:54:33.273Z,4.70
2022-08-31T21:59:38.552Z,4.50
2022-08-31T22:02:12.750Z,4.70
2022-08-31T22:04:46.076Z,5.53
2022-08-31T22:07:18.283Z,5.20
2022-08-31T22:12:22.192Z,5.85
2022-08-31T22:14:54.926Z,5.90
2022-08-31T22:17:42.490Z,6.93
2022-08-31T22:20:21.341Z,6.63
2022-08-31T22:22:54.595Z,6.95
2022-08-31T22:25:26.844Z,7.38
2022-08-31T22:27:59.029Z,7.10
2022-08-31T22:30:31.418Z,7.60
2022-08-31T22:33:04.943Z,8.00
2022-08-31T22:35:40.885Z,7.85
2022-08-31T22:38:16.327Z,8.73
2022-08-31T22:40:51.345Z,8.73
2022-08-31T22:43:23.935Z,9.35
2022-08-31T22:45:56.379Z,9.50
2022-08-31T22:51:05.991Z,9.73
2022-08-31T22:53:43.078Z,10.55
2022-08-31T22:56:22.376Z,11.05
2022-08-31T22:58:56.498Z,11.43
2022-08-31T23:01:35.534Z,11.93
2022-08-31T23:04:10.499Z,12.27
2022-08-31T23:06:43.579Z,12.50
2022-08-31T23:09:15.714Z,12.93
2022-08-31T23:14:22.392Z,13.40
2022-08-31T23:16:58.554Z,13.98
2022-08-31T23:19:36.705Z,14.70
2022-08-31T23:22:15.325Z,14.90
2022-08-31T23:24:50.280Z,14.27
2022-08-31T23:27:23.958Z,15.50
2022-08-31T23:29:59.436Z,15.25
2022-08-31T23:32:33.655Z,16.10
2022-08-31T23:35:08.601Z,15.82
2022-08-31T23:37:41.139Z,15.88
2022-08-31T23:40:14.179Z,16.33
2022-08-31T23:42:46.286Z,16.02
2022-08-31T23:45:18.920Z,16.42
2022-08-31T23:50:22.681Z,17.52
2022-08-31T23:52:54.951Z,17.02
2022-08-31T23:55:30.452Z,17.20
2022-08-31T23:58:03.629Z,17.13
